Time;durP1;ratioP1;P1;durP2;ratioP2;P2;SDS_P1;SDS_P2;PMS_P1;PMS_P2;Temp;Humidity;BMP_temperature;BMP_pressure;BME280_temperature;BME280_humidity;BME280_pressure;Samples;Min_cycle;Max_cycle;Signal;HPM_P1;HPM_P2
2023/08/15 00:01:04;;;;;;;5.32;4.72;;;23.10;1.00;;;;;;4975724;28;20217;-80
2023/08/15 00:03:32;;;;;;;5.45;4.82;;;23.00;1.00;;;;;;4981301;28;20204;-80
2023/08/15 00:06:00;;;;;;;6.40;4.97;;;23.10;1.00;;;;;;4998448;28;20208;-80
2023/08/15 00:08:27;;;;;;;6.63;5.30;;;23.00;1.00;;;;;;4988856;28;20207;-80
2023/08/15 00:10:55;;;;;;;5.22;4.72;;;23.00;1.00;;;;;;4974461;28;20231;-80
2023/08/15 00:13:22;;;;;;;5.55;4.72;;;23.00;1.00;;;;;;4971671;28;20223;-80
2023/08/15 00:15:50;;;;;;;5.30;4.88;;;23.00;1.00;;;;;;4989718;28;20196;-80
2023/08/15 00:18:19;;;;;;;5.15;4.65;;;23.00;1.00;;;;;;4984347;28;20197;-80
2023/08/15 00:20:48;;;;;;;7.45;4.97;;;22.90;1.00;;;;;;4971695;28;20228;-79
2023/08/15 00:23:15;;;;;;;5.63;4.95;;;22.90;1.00;;;;;;4984938;28;20203;-80
2023/08/15 00:25:43;;;;;;;4.93;4.55;;;22.90;1.00;;;;;;4969237;28;20200;-80
2023/08/15 00:28:11;;;;;;;5.40;4.93;;;22.90;1.00;;;;;;4989983;28;20200;-80
2023/08/15 00:30:38;;;;;;;5.18;4.68;;;22.90;1.00;;;;;;4965882;28;20224;-80
2023/08/15 00:33:06;;;;;;;5.28;4.88;;;22.90;1.00;;;;;;4984419;28;20224;-80
2023/08/15 00:35:35;;;;;;;5.78;5.20;;;22.80;1.00;;;;;;4972120;28;20199;-80
2023/08/15 00:38:04;;;;;;;6.07;5.40;;;22.80;1.00;;;;;;4971383;28;20651;-80
2023/08/15 00:40:31;;;;;;;6.95;5.47;;;22.80;1.00;;;;;;4969658;28;20235;-80
2023/08/15 00:42:59;;;;;;;5.32;4.72;;;22.80;1.00;;;;;;4975558;28;20195;-80
2023/08/15 00:45:27;;;;;;;5.82;5.20;;;22.80;1.00;;;;;;4974057;28;20212;-80
2023/08/15 00:47:55;;;;;;;6.18;5.20;;;22.80;1.00;;;;;;4970723;28;20222;-80
2023/08/15 00:50:23;;;;;;;6.57;5.13;;;22.80;1.00;;;;;;4984079;28;20236;-80
2023/08/15 00:52:53;;;;;;;5.20;4.70;;;22.90;1.00;;;;;;4973085;28;20216;-80
2023/08/15 00:55:21;;;;;;;5.68;5.15;;;22.80;1.00;;;;;;4972844;28;20200;-80
2023/08/15 00:57:49;;;;;;;7.10;4.82;;;22.80;1.00;;;;;;4982405;28;20197;-80
2023/08/15 01:00:17;;;;;;;5.45;4.97;;;22.70;1.00;;;;;;4968830;28;20221;-80
2023/08/15 01:02:44;;;;;;;6.88;5.22;;;22.60;47.90;;;;;;4983929;28;20204;-80
2023/08/15 01:05:16;;;;;;;7.03;4.90;;;22.70;94.60;;;;;;4974588;28;20227;-80
2023/08/15 01:07:44;;;;;;;5.53;5.00;;;22.60;99.90;;;;;;4984011;28;20200;-80
2023/08/15 01:10:12;;;;;;;6.30;4.93;;;22.60;99.90;;;;;;4981197;28;20237;-80
2023/08/15 01:12:47;;;;;;;5.72;5.18;;;22.60;54.00;;;;;;4967107;28;20202;-80
2023/08/15 01:15:19;;;;;;;5.50;5.00;;;22.60;99.90;;;;;;4970051;28;20207;-80
2023/08/15 01:17:58;;;;;;;5.72;5.03;;;22.70;99.90;;;;;;4976637;28;20684;-80
2023/08/15 01:20:29;;;;;;;4.95;4.45;;;22.60;99.90;;;;;;4975549;28;20216;-80
2023/08/15 01:23:02;;;;;;;6.00;5.50;;;22.60;82.60;;;;;;4982616;28;20203;-80
2023/08/15 01:25:38;;;;;;;5.25;4.75;;;22.60;99.90;;;;;;4992064;28;20208;-80
2023/08/15 01:28:06;;;;;;;6.20;5.25;;;22.60;99.90;;;;;;4966199;28;20199;-80
2023/08/15 01:30:33;;;;;;;7.75;5.68;;;22.60;99.90;;;;;;4974403;28;20227;-80
2023/08/15 01:33:06;;;;;;;6.03;5.53;;;22.60;99.90;;;;;;4992452;28;20574;-80
2023/08/15 01:35:37;;;;;;;6.40;5.47;;;22.60;99.90;;;;;;4972797;28;20283;-80
2023/08/15 01:38:10;;;;;;;5.72;5.20;;;22.60;99.90;;;;;;4979014;28;20205;-80
2023/08/15 01:40:42;;;;;;;6.75;5.28;;;22.60;99.90;;;;;;4968287;28;20231;-80
2023/08/15 01:43:14;;;;;;;6.28;5.68;;;22.50;99.90;;;;;;4979913;28;20197;-80
2023/08/15 01:45:42;;;;;;;6.00;5.32;;;22.50;99.90;;;;;;4976775;28;20195;-80
2023/08/15 01:48:09;;;;;;;6.05;5.07;;;22.50;99.90;;;;;;4980967;28;20216;-80
2023/08/15 01:50:37;;;;;;;6.57;5.53;;;22.40;99.90;;;;;;4984226;28;21009;-80
2023/08/15 01:53:04;;;;;;;5.88;5.22;;;22.40;99.90;;;;;;4973327;28;20571;-80
2023/08/15 01:55:32;;;;;;;6.10;5.10;;;22.30;99.90;;;;;;4968797;28;20212;-80
2023/08/15 01:58:00;;;;;;;5.88;5.25;;;22.20;99.90;;;;;;4970801;28;20205;-80
2023/08/15 02:00:28;;;;;;;5.68;5.05;;;22.40;99.90;;;;;;4985324;28;20231;-80
2023/08/15 02:02:55;;;;;;;7.65;5.18;;;22.20;99.90;;;;;;4969824;28;20676;-80
2023/08/15 02:05:23;;;;;;;6.07;5.47;;;22.30;99.90;;;;;;4984394;28;20196;-80
2023/08/15 02:07:52;;;;;;;6.55;5.13;;;22.30;99.90;;;;;;4979984;28;20201;-80
2023/08/15 02:10:19;;;;;;;5.60;4.80;;;22.40;99.90;;;;;;4975523;28;20224;-80
2023/08/15 02:12:49;;;;;;;5.60;5.00;;;22.30;99.90;;;;;;4978731;28;20200;-80
2023/08/15 02:15:18;;;;;;;6.68;4.97;;;22.40;99.90;;;;;;4979507;28;20225;-80
2023/08/15 02:17:46;;;;;;;6.00;5.40;;;22.40;99.90;;;;;;4979059;28;20204;-80
2023/08/15 02:20:13;;;;;;;5.32;4.78;;;22.50;99.90;;;;;;4973582;28;20220;-80
2023/08/15 02:22:41;;;;;;;5.47;4.97;;;22.40;99.90;;;;;;4991491;28;20210;-80
2023/08/15 02:25:09;;;;;;;6.10;5.55;;;22.40;99.90;;;;;;4990510;28;20193;-80
2023/08/15 02:27:36;;;;;;;6.75;5.20;;;22.40;99.90;;;;;;4966911;28;20689;-80
2023/08/15 02:30:05;;;;;;;5.78;5.18;;;22.40;99.90;;;;;;5012572;23;20226;-77
2023/08/15 02:32:34;;;;;;;5.80;4.70;;;22.40;99.90;;;;;;5016274;28;20545;-78
2023/08/15 02:35:01;;;;;;;5.45;4.80;;;22.40;99.90;;;;;;5023562;28;20212;-77
2023/08/15 02:37:30;;;;;;;5.90;5.40;;;22.30;99.90;;;;;;5019139;28;20683;-77
2023/08/15 02:39:58;;;;;;;6.43;4.85;;;22.40;99.90;;;;;;5013499;28;20225;-77
2023/08/15 02:42:26;;;;;;;5.90;5.00;;;22.40;99.90;;;;;;5019516;28;20546;-77
2023/08/15 02:44:55;;;;;;;5.32;4.72;;;22.40;99.90;;;;;;5011541;28;20195;-77
2023/08/15 02:47:22;;;;;;;5.10;4.53;;;22.50;99.90;;;;;;5036998;28;20219;-78
2023/08/15 02:49:51;;;;;;;6.07;5.50;;;22.50;99.90;;;;;;5014292;28;20226;-77
2023/08/15 02:52:18;;;;;;;5.20;4.80;;;22.50;99.90;;;;;;5015747;28;20207;-77
2023/08/15 02:54:46;;;;;;;4.90;4.35;;;22.50;99.90;;;;;;5016225;28;20684;-78
2023/08/15 02:57:13;;;;;;;5.50;5.00;;;22.60;99.90;;;;;;5010918;28;20199;-78
2023/08/15 02:59:41;;;;;;;6.10;4.80;;;22.60;99.90;;;;;;5022196;28;20223;-78
2023/08/15 03:02:09;;;;;;;8.00;4.70;;;22.60;99.90;;;;;;5011668;28;20203;-78
2023/08/15 03:04:37;;;;;;;5.68;5.15;;;22.60;99.90;;;;;;5031633;28;20199;-77
2023/08/15 03:07:06;;;;;;;4.93;4.47;;;22.60;99.90;;;;;;5015460;28;20664;-78
2023/08/15 03:09:33;;;;;;;5.85;5.25;;;22.70;99.90;;;;;;5013474;28;20728;-77
2023/08/15 03:12:01;;;;;;;5.35;4.85;;;22.60;99.90;;;;;;5033532;28;20208;-77
2023/08/15 03:14:30;;;;;;;5.28;4.78;;;22.60;99.90;;;;;;5020809;28;20218;-77
2023/08/15 03:16:58;;;;;;;5.28;4.70;;;22.60;99.90;;;;;;5017844;28;20198;-77
2023/08/15 03:19:26;;;;;;;5.30;4.55;;;22.60;99.90;;;;;;5031042;28;20214;-77
2023/08/15 03:21:53;;;;;;;5.25;4.75;;;22.50;99.90;;;;;;5016668;28;20207;-77
2023/08/15 03:24:22;;;;;;;5.88;4.97;;;22.60;99.90;;;;;;5031414;28;20219;-77
2023/08/15 03:26:50;;;;;;;6.28;4.95;;;22.60;99.90;;;;;;5025737;28;20199;-77
2023/08/15 03:29:17;;;;;;;5.88;4.72;;;22.60;99.90;;;;;;5023438;28;20218;-77
2023/08/15 03:31:45;;;;;;;6.30;5.13;;;22.60;99.90;;;;;;5014497;28;20661;-77
2023/08/15 03:34:13;;;;;;;5.00;4.50;;;22.70;99.90;;;;;;5014474;28;20696;-78
2023/08/15 03:36:40;;;;;;;5.22;4.72;;;22.60;99.90;;;;;;5043167;28;20198;-77
2023/08/15 03:39:08;;;;;;;4.93;4.43;;;22.60;99.90;;;;;;5040006;28;20696;-77
2023/08/15 03:41:37;;;;;;;6.78;4.55;;;22.60;99.90;;;;;;5026074;28;20573;-77
2023/08/15 03:44:05;;;;;;;5.57;5.07;;;22.60;99.90;;;;;;5000499;28;20198;-77
2023/08/15 03:46:32;;;;;;;6.40;4.90;;;22.60;99.90;;;;;;5017175;28;20206;-77
2023/08/15 03:49:00;;;;;;;6.00;5.40;;;22.60;99.90;;;;;;5029758;28;20215;-77
2023/08/15 03:51:28;;;;;;;8.98;6.50;;;22.50;99.90;;;;;;5012430;28;20195;-77
2023/08/15 03:53:56;;;;;;;9.55;5.40;;;22.40;99.90;;;;;;5028734;28;20205;-77
2023/08/15 03:56:24;;;;;;;6.63;6.03;;;22.40;99.90;;;;;;5026263;28;20209;-77
2023/08/15 03:58:52;;;;;;;6.47;5.85;;;22.40;99.90;;;;;;5014867;28;20195;-77
2023/08/15 04:01:20;;;;;;;6.60;5.75;;;22.40;99.90;;;;;;5021349;28;20299;-77
2023/08/15 04:03:51;;;;;;;8.85;5.70;;;22.30;99.90;;;;;;4995987;28;20204;-77
2023/08/15 04:06:19;;;;;;;8.63;6.13;;;22.40;99.90;;;;;;5017478;28;20206;-77
2023/08/15 04:08:47;;;;;;;7.68;5.93;;;22.30;99.90;;;;;;5014764;28;20203;-77
2023/08/15 04:11:16;;;;;;;7.10;6.13;;;22.30;99.90;;;;;;5015814;28;20202;-79
2023/08/15 04:13:43;;;;;;;7.18;6.18;;;22.30;99.90;;;;;;5030796;28;20214;-79
2023/08/15 04:16:12;;;;;;;7.10;5.57;;;22.20;99.90;;;;;;5014351;28;20290;-79
2023/08/15 04:18:40;;;;;;;6.70;5.97;;;22.20;99.90;;;;;;5009650;28;20211;-80
2023/08/15 04:21:07;;;;;;;8.88;6.30;;;22.20;99.90;;;;;;5030095;28;20195;-80
2023/08/15 04:23:35;;;;;;;7.60;5.57;;;22.20;99.90;;;;;;5013329;28;20198;-80
2023/08/15 04:26:02;;;;;;;8.63;7.00;;;22.10;99.90;;;;;;5022015;28;20210;-80
2023/08/15 04:28:30;;;;;;;7.07;6.10;;;22.00;99.90;;;;;;5018632;28;20349;-80
2023/08/15 04:30:57;;;;;;;8.52;7.53;;;22.00;99.90;;;;;;5020094;28;20218;-80
2023/08/15 04:33:26;;;;;;;7.90;6.93;;;21.90;99.90;;;;;;5030767;28;20203;-80
2023/08/15 04:35:54;;;;;;;8.45;7.55;;;21.80;99.90;;;;;;5013488;28;20223;-80
2023/08/15 04:38:22;;;;;;;8.63;7.47;;;21.80;99.90;;;;;;5020501;28;20668;-80
2023/08/15 04:40:50;;;;;;;8.30;7.38;;;21.90;99.90;;;;;;5032052;28;20700;-80
2023/08/15 04:43:17;;;;;;;8.63;6.88;;;21.90;99.90;;;;;;5019025;28;20204;-77
2023/08/15 04:45:46;;;;;;;7.50;6.32;;;22.00;99.90;;;;;;5046900;28;20190;-77
2023/08/15 04:48:14;;;;;;;8.23;6.65;;;21.90;99.90;;;;;;5025906;28;20198;-78
2023/08/15 04:50:43;;;;;;;7.82;5.72;;;21.90;99.90;;;;;;5027259;28;20230;-78
2023/08/15 04:53:12;;;;;;;7.05;6.07;;;21.90;99.90;;;;;;5031506;28;20199;-78
2023/08/15 04:55:40;;;;;;;7.57;6.63;;;21.80;99.90;;;;;;5025243;28;20225;-78
2023/08/15 04:58:09;;;;;;;7.00;5.85;;;21.70;99.90;;;;;;5013413;28;20562;-78
2023/08/15 05:00:36;;;;;;;9.20;6.47;;;21.80;99.90;;;;;;5027664;28;20222;-78
2023/08/15 05:03:05;;;;;;;8.35;6.03;;;21.80;99.90;;;;;;5017559;28;20551;-78
2023/08/15 05:05:33;;;;;;;8.70;6.00;;;21.70;99.90;;;;;;5020666;28;20196;-78
2023/08/15 05:08:07;;;;;;;10.43;6.30;;;21.80;99.90;;;;;;5038048;28;20229;-78
2023/08/15 05:10:35;;;;;;;6.38;5.60;;;21.80;99.90;;;;;;5032550;28;20226;-78
2023/08/15 05:13:02;;;;;;;7.22;5.80;;;21.70;99.90;;;;;;5041837;28;20286;-78
2023/08/15 05:15:30;;;;;;;8.07;5.72;;;21.70;99.90;;;;;;5035839;28;20715;-80
2023/08/15 05:17:58;;;;;;;6.80;5.40;;;21.70;99.90;;;;;;5030714;28;20199;-78
2023/08/15 05:20:26;;;;;;;10.60;6.03;;;21.70;99.90;;;;;;5019732;28;20222;-79
2023/08/15 05:22:54;;;;;;;5.78;5.18;;;21.70;99.90;;;;;;5014318;28;20210;-79
2023/08/15 05:25:24;;;;;;;8.23;5.65;;;21.60;99.90;;;;;;5010814;28;20210;-79
2023/08/15 05:28:10;;;;;;;7.05;5.90;;;21.70;99.90;;;;;;5012944;28;20226;-78
2023/08/15 05:30:57;;;;;;;6.95;6.15;;;21.70;99.90;;;;;;5012985;28;20235;-79
2023/08/15 05:33:25;;;;;;;7.32;5.93;;;21.70;99.90;;;;;;5010828;28;20226;-79
2023/08/15 05:35:52;;;;;;;8.02;6.20;;;21.60;99.90;;;;;;5028266;28;20215;-79
2023/08/15 05:38:26;;;;;;;6.47;5.88;;;21.60;99.90;;;;;;5013332;28;20238;-78
2023/08/15 05:41:00;;;;;;;9.48;6.50;;;21.70;99.90;;;;;;5008135;28;20594;-78
2023/08/15 05:43:37;;;;;;;7.20;6.50;;;21.60;99.90;;;;;;5008520;28;20214;-78
2023/08/15 05:46:06;;;;;;;7.47;5.88;;;21.70;99.90;;;;;;5032275;28;20203;-78
2023/08/15 05:48:38;;;;;;;6.80;5.72;;;21.70;99.90;;;;;;5034009;28;20218;-78
2023/08/15 05:51:05;;;;;;;7.57;6.25;;;21.80;99.90;;;;;;5023907;28;20673;-78
2023/08/15 05:53:33;;;;;;;6.85;6.20;;;21.70;99.90;;;;;;5030228;28;20203;-78
2023/08/15 05:56:04;;;;;;;9.93;6.22;;;21.70;99.90;;;;;;5035598;28;20223;-78
2023/08/15 05:58:37;;;;;;;8.07;6.20;;;21.70;99.90;;;;;;5042528;28;20207;-79
2023/08/15 06:01:12;;;;;;;6.32;5.70;;;21.70;99.90;;;;;;5018223;28;20703;-78
2023/08/15 06:03:41;;;;;;;9.10;6.47;;;21.70;99.90;;;;;;5034894;28;20198;-78
2023/08/15 06:06:15;;;;;;;9.63;7.10;;;21.80;99.90;;;;;;5027939;28;20195;-78
2023/08/15 06:08:42;;;;;;;6.70;6.00;;;21.70;99.90;;;;;;5036468;28;20202;-79
2023/08/15 06:11:18;;;;;;;8.25;6.25;;;21.60;99.90;;;;;;5014111;28;20522;-79
2023/08/15 06:13:47;;;;;;;6.60;6.00;;;21.60;99.90;;;;;;5023662;28;20205;-79
2023/08/15 06:16:14;;;;;;;8.68;6.20;;;21.60;99.90;;;;;;5022864;28;20222;-80
2023/08/15 06:18:41;;;;;;;9.77;6.10;;;21.60;99.90;;;;;;5016951;28;20214;-80
2023/08/15 06:21:09;;;;;;;9.18;7.40;;;21.70;99.90;;;;;;5021245;28;20194;-80
2023/08/15 06:23:37;;;;;;;7.82;6.68;;;21.70;99.90;;;;;;5011315;28;20214;-78
2023/08/15 06:26:04;;;;;;;9.63;6.82;;;21.70;99.90;;;;;;5012354;28;20199;-79
2023/08/15 06:28:33;;;;;;;10.68;7.20;;;21.60;99.90;;;;;;5019707;28;20203;-79
2023/08/15 06:31:00;;;;;;;10.98;7.43;;;21.50;99.90;;;;;;5026778;28;20222;-79
2023/08/15 06:33:28;;;;;;;8.82;6.78;;;21.50;99.90;;;;;;5004747;28;20200;-79
2023/08/15 06:35:55;;;;;;;8.77;7.20;;;21.50;99.90;;;;;;5014809;28;20234;-79
2023/08/15 06:38:23;;;;;;;8.77;6.95;;;21.70;99.90;;;;;;5007447;28;20202;-78
2023/08/15 06:40:50;;;;;;;11.48;7.30;;;21.70;99.90;;;;;;5032742;28;20226;-79
2023/08/15 06:43:18;;;;;;;8.80;7.32;;;21.80;99.90;;;;;;5019885;28;20203;-79
2023/08/15 06:45:47;;;;;;;8.23;7.28;;;21.70;99.90;;;;;;5035023;28;20192;-79
2023/08/15 06:48:14;;;;;;;8.13;6.78;;;21.70;99.90;;;;;;5029867;28;20207;-79
2023/08/15 06:50:42;;;;;;;10.38;7.70;;;21.80;99.90;;;;;;5015679;28;20225;-79
2023/08/15 06:53:09;;;;;;;11.05;7.90;;;21.80;99.90;;;;;;5037464;28;20203;-79
2023/08/15 06:55:37;;;;;;;8.77;7.20;;;21.80;99.90;;;;;;5033551;28;20219;-79
2023/08/15 06:58:05;;;;;;;8.18;7.22;;;21.80;99.90;;;;;;5025054;28;20199;-79
2023/08/15 07:00:33;;;;;;;11.52;8.05;;;21.90;99.90;;;;;;5013881;28;20226;-79
2023/08/15 07:03:03;;;;;;;7.60;6.30;;;21.90;99.90;;;;;;5013032;28;20215;-79
2023/08/15 07:05:31;;;;;;;8.63;7.50;;;21.90;99.90;;;;;;5006368;28;20561;-79
2023/08/15 07:07:59;;;;;;;7.97;7.18;;;21.90;99.90;;;;;;5015811;28;20203;-79
2023/08/15 07:10:27;;;;;;;9.65;7.25;;;22.00;99.90;;;;;;5021707;28;20703;-79
2023/08/15 07:12:54;;;;;;;10.45;7.50;;;22.00;99.90;;;;;;5025778;28;20199;-79
2023/08/15 07:15:22;;;;;;;8.95;7.05;;;22.00;99.90;;;;;;5027216;28;20226;-79
2023/08/15 07:17:49;;;;;;;9.95;6.70;;;22.00;99.90;;;;;;5042252;28;20183;-79
2023/08/15 07:20:18;;;;;;;7.28;6.55;;;22.00;99.90;;;;;;5036053;28;20830;-79
2023/08/15 07:22:46;;;;;;;10.00;6.72;;;21.90;99.90;;;;;;5031937;28;20205;-79
2023/08/15 07:25:14;;;;;;;7.75;6.93;;;21.90;99.90;;;;;;5002311;28;20257;-80
2023/08/15 07:27:41;;;;;;;10.20;6.47;;;21.90;99.90;;;;;;5042331;28;20198;-79
2023/08/15 07:30:11;;;;;;;9.68;6.45;;;22.00;99.90;;;;;;5021781;28;20234;-78
2023/08/15 07:32:39;;;;;;;8.48;6.88;;;22.00;99.90;;;;;;5014780;28;20199;-79
2023/08/15 07:35:08;;;;;;;10.32;6.57;;;22.00;99.90;;;;;;5011382;28;20558;-79
2023/08/15 07:37:37;;;;;;;7.78;6.35;;;22.00;99.90;;;;;;5029695;28;20199;-79
2023/08/15 07:40:09;;;;;;;9.50;7.03;;;22.00;99.90;;;;;;5011634;28;20214;-80
2023/08/15 07:42:37;;;;;;;10.20;6.95;;;22.10;99.90;;;;;;5016090;28;20195;-81
2023/08/15 07:45:07;;;;;;;8.90;6.18;;;22.00;99.90;;;;;;5026772;28;20195;-80
2023/08/15 07:47:36;;;;;;;11.15;6.60;;;22.10;99.90;;;;;;5017451;28;20195;-80
2023/08/15 07:50:14;;;;;;;9.40;6.13;;;22.20;99.90;;;;;;5032844;28;20743;-81
2023/08/15 07:52:44;;;;;;;8.27;5.88;;;22.40;99.90;;;;;;5015968;28;20213;-81
2023/08/15 07:55:12;;;;;;;5.90;4.80;;;22.40;99.90;;;;;;5012182;28;20715;-81
2023/08/15 07:57:43;;;;;;;7.55;5.47;;;22.40;99.90;;;;;;5011301;28;20230;-81
2023/08/15 08:00:12;;;;;;;6.35;4.90;;;22.50;99.90;;;;;;5025426;28;20214;-81
2023/08/15 08:02:40;;;;;;;6.97;4.68;;;22.20;99.90;;;;;;5031971;28;20206;-80
2023/08/15 08:05:09;;;;;;;8.75;5.13;;;22.10;99.90;;;;;;5030386;28;20206;-81
2023/08/15 08:07:38;;;;;;;8.05;4.75;;;22.00;1.00;;;;;;5040332;28;20195;-81
2023/08/15 08:10:08;;;;;;;8.75;5.05;;;22.00;99.90;;;;;;5032990;28;20219;-81
2023/08/15 08:12:36;;;;;;;8.40;4.75;;;22.00;1.00;;;;;;5033933;28;20201;-81
2023/08/15 08:15:05;;;;;;;6.35;4.32;;;21.90;1.00;;;;;;5019992;28;20210;-81
2023/08/15 08:17:33;;;;;;;4.72;4.20;;;22.00;1.00;;;;;;5019291;28;20475;-81
2023/08/15 08:20:01;;;;;;;5.82;3.92;;;22.00;1.00;;;;;;5013745;28;20222;-81
2023/08/15 08:22:28;;;;;;;5.35;3.63;;;22.10;1.00;;;;;;5018808;28;20196;-81
2023/08/15 08:24:56;;;;;;;5.30;3.28;;;22.30;1.00;;;;;;5028222;28;20210;-80
2023/08/15 08:27:25;;;;;;;5.68;3.80;;;22.20;1.00;;;;;;5030834;28;20219;-81
2023/08/15 08:29:52;;;;;;;5.80;3.58;;;22.30;99.90;;;;;;5030564;28;20260;-81
2023/08/15 08:32:20;;;;;;;5.63;3.80;;;22.30;1.00;;;;;;5043251;28;20199;-81
2023/08/15 08:34:47;;;;;;;4.53;3.78;;;22.30;1.00;;;;;;5014021;28;20206;-81
2023/08/15 08:37:14;;;;;;;5.00;4.05;;;22.40;1.00;;;;;;5027319;28;20230;-80
2023/08/15 08:39:50;;;;;;;6.43;4.70;;;22.40;1.00;;;;;;5019964;28;20218;-81
2023/08/15 08:42:18;;;;;;;4.80;4.22;;;22.40;99.90;;;;;;5002359;28;20203;-81
2023/08/15 08:44:47;;;;;;;5.95;3.13;;;22.40;99.90;;;;;;5015020;28;20660;-81
2023/08/15 08:47:20;;;;;;;4.82;3.55;;;22.40;99.90;;;;;;5027063;28;20183;-80
2023/08/15 08:49:50;;;;;;;4.97;3.38;;;22.50;1.00;;;;;;5014054;28;20218;-80
2023/08/15 08:52:18;;;;;;;4.97;3.30;;;22.60;99.90;;;;;;5016876;28;20195;-81
2023/08/15 08:54:46;;;;;;;5.00;3.50;;;22.80;99.90;;;;;;5015257;28;20202;-81
2023/08/15 08:57:18;;;;;;;4.18;2.60;;;22.90;99.90;;;;;;5017282;28;20218;-80
2023/08/15 08:59:48;;;;;;;4.22;3.05;;;23.00;99.90;;;;;;5008603;28;20222;-81
2023/08/15 09:02:22;;;;;;;5.68;3.05;;;23.00;1.00;;;;;;5015565;28;20207;-81
2023/08/15 09:04:51;;;;;;;7.82;3.00;;;22.90;99.90;;;;;;5016196;28;20199;-80
2023/08/15 09:07:19;;;;;;;4.43;2.88;;;23.00;99.90;;;;;;5012441;28;20199;-81
2023/08/15 09:09:50;;;;;;;3.75;2.22;;;23.30;99.90;;;;;;5019924;28;20227;-80
2023/08/15 09:12:35;;;;;;;2.97;1.70;;;23.30;99.90;;;;;;5027490;28;20188;-80
2023/08/15 09:15:13;;;;;;;3.28;1.77;;;23.30;99.90;;;;;;5028570;28;20206;-82
2023/08/15 09:17:44;;;;;;;5.50;2.20;;;23.30;99.90;;;;;;5020940;28;20211;-81
2023/08/15 09:20:13;;;;;;;2.70;1.70;;;23.30;99.90;;;;;;5016544;28;20219;-81
2023/08/15 09:22:46;;;;;;;2.30;1.80;;;23.20;99.90;;;;;;5016995;28;20210;-79
2023/08/15 09:25:15;;;;;;;1.70;1.60;;;23.30;99.90;;;;;;5013669;28;20210;-79
2023/08/15 09:27:44;;;;;;;2.97;1.58;;;23.30;99.90;;;;;;5032751;28;20206;-77
2023/08/15 09:30:14;;;;;;;2.80;1.52;;;23.10;99.90;;;;;;5027352;28;20219;-78
2023/08/15 09:32:43;;;;;;;3.08;2.03;;;23.30;99.90;;;;;;5016915;28;20195;-78
2023/08/15 09:35:12;;;;;;;3.13;1.50;;;23.50;99.90;;;;;;5023488;28;20199;-78
2023/08/15 09:37:41;;;;;;;2.63;1.50;;;23.30;99.90;;;;;;5034747;28;20210;-78
2023/08/15 09:40:15;;;;;;;3.47;1.58;;;23.20;99.90;;;;;;5036649;28;20222;-81
2023/08/15 09:42:47;;;;;;;3.28;1.83;;;23.50;99.90;;;;;;5011038;28;20199;-76
2023/08/15 09:45:16;;;;;;;2.10;1.52;;;23.30;99.90;;;;;;5028724;28;20226;-76
2023/08/15 09:47:45;;;;;;;4.00;1.67;;;23.40;99.90;;;;;;5014742;28;20195;-76
2023/08/15 09:50:15;;;;;;;3.40;1.75;;;23.50;99.90;;;;;;5016735;28;20219;-77
2023/08/15 09:52:44;;;;;;;3.47;1.60;;;23.60;99.90;;;;;;5022201;28;20214;-77
2023/08/15 09:55:16;;;;;;;3.38;1.58;;;23.80;99.90;;;;;;5018844;28;20232;-80
2023/08/15 09:57:45;;;;;;;3.10;1.38;;;23.80;99.90;;;;;;5011459;28;20217;-81
2023/08/15 10:00:16;;;;;;;4.93;1.85;;;23.70;99.90;;;;;;5021246;28;20225;-81
2023/08/15 10:02:48;;;;;;;2.17;1.80;;;23.80;99.90;;;;;;5017414;28;20219;-81
2023/08/15 10:05:21;;;;;;;2.58;1.88;;;24.00;99.90;;;;;;5035461;28;20198;-81
2023/08/15 10:07:49;;;;;;;1.98;1.45;;;24.10;99.90;;;;;;5032023;28;20194;-81
2023/08/15 10:10:18;;;;;;;3.80;1.55;;;24.10;99.90;;;;;;5037409;28;20216;-81
2023/08/15 10:12:47;;;;;;;2.20;1.40;;;24.10;99.90;;;;;;5022968;28;20210;-80
2023/08/15 10:15:17;;;;;;;3.65;1.35;;;24.30;99.90;;;;;;5041831;28;20199;-80
2023/08/15 10:17:45;;;;;;;3.50;1.50;;;24.20;99.90;;;;;;5035604;28;20214;-81
2023/08/15 10:20:18;;;;;;;3.22;1.63;;;24.20;99.90;;;;;;5032235;28;20237;-81
2023/08/15 10:22:45;;;;;;;2.80;1.75;;;24.30;99.90;;;;;;5043583;28;20198;-81
2023/08/15 10:25:21;;;;;;;2.83;1.73;;;24.10;99.90;;;;;;5025902;28;20199;-80
2023/08/15 10:27:50;;;;;;;3.90;2.08;;;24.40;99.90;;;;;;5034541;28;20197;-81
2023/08/15 10:30:41;;;;;;;3.95;1.80;;;24.50;99.90;;;;;;5020053;28;20242;-81
2023/08/15 10:33:16;;;;;;;2.85;1.90;;;24.40;99.90;;;;;;5017411;28;20218;-81
2023/08/15 10:35:50;;;;;;;5.68;2.30;;;24.30;99.90;;;;;;5033824;28;20203;-80
2023/08/15 10:38:20;;;;;;;3.17;1.88;;;24.30;99.90;;;;;;5035180;28;20203;-81
2023/08/15 10:40:48;;;;;;;4.38;1.90;;;24.50;99.90;;;;;;5022851;28;20215;-81
2023/08/15 10:43:16;;;;;;;2.72;2.10;;;24.40;99.90;;;;;;5035510;28;20207;-79
2023/08/15 10:45:50;;;;;;;3.85;2.38;;;24.70;99.90;;;;;;5018133;28;20199;-79
2023/08/15 10:48:36;;;;;;;2.13;1.92;;;25.00;99.90;;;;;;5007750;28;20550;-80
2023/08/15 10:51:16;;;;;;;4.38;2.05;;;25.10;99.90;;;;;;5017931;28;20203;-79
2023/08/15 10:53:44;;;;;;;5.55;2.33;;;25.10;99.90;;;;;;5028688;28;20195;-80
2023/08/15 10:56:12;;;;;;;4.50;2.25;;;25.10;99.90;;;;;;5030513;28;20199;-78
2023/08/15 10:58:41;;;;;;;2.67;2.05;;;24.90;99.90;;;;;;5014945;28;20600;-79
2023/08/15 11:01:10;;;;;;;4.38;2.15;;;24.80;99.90;;;;;;5004509;28;20195;-79
2023/08/15 11:03:51;;;;;;;4.22;2.45;;;25.00;99.90;;;;;;5028050;28;20195;-79
2023/08/15 11:06:19;;;;;;;4.50;2.35;;;25.10;99.90;;;;;;5036015;28;20191;-79
2023/08/15 11:08:48;;;;;;;2.92;1.90;;;25.20;99.90;;;;;;5006721;28;20199;-79
2023/08/15 11:11:16;;;;;;;3.85;2.00;;;25.10;99.90;;;;;;5030059;28;20218;-79
2023/08/15 11:13:45;;;;;;;4.10;2.10;;;25.30;99.90;;;;;;5012882;28;20700;-79
2023/08/15 11:16:15;;;;;;;3.03;2.10;;;25.20;99.90;;;;;;5020019;28;20556;-79
2023/08/15 11:18:43;;;;;;;3.67;1.88;;;25.10;99.90;;;;;;5030085;28;20213;-79
2023/08/15 11:21:12;;;;;;;3.25;2.25;;;25.00;99.90;;;;;;5027157;28;20222;-79
2023/08/15 11:23:54;;;;;;;3.53;1.90;;;24.90;99.90;;;;;;5018335;28;20283;-79
2023/08/15 11:26:25;;;;;;;2.88;1.90;;;24.90;99.90;;;;;;5014232;28;20207;-79
2023/08/15 11:28:53;;;;;;;3.58;2.33;;;24.90;99.90;;;;;;5006666;28;20202;-79
2023/08/15 11:31:23;;;;;;;4.53;2.13;;;24.90;99.90;;;;;;5013683;28;20199;-79
2023/08/15 11:33:51;;;;;;;7.18;2.85;;;24.80;99.90;;;;;;5012722;28;20199;-79
2023/08/15 11:36:19;;;;;;;4.63;2.80;;;24.70;99.90;;;;;;5012009;28;20202;-79
2023/08/15 11:38:46;;;;;;;4.63;2.38;;;24.90;99.90;;;;;;5019855;28;20223;-80
2023/08/15 11:41:14;;;;;;;3.80;2.08;;;25.00;99.90;;;;;;5039495;28;20225;-79
2023/08/15 11:43:41;;;;;;;4.47;2.40;;;25.30;99.90;;;;;;5025522;28;20203;-79
2023/08/15 11:46:09;;;;;;;4.95;2.63;;;25.20;99.90;;;;;;5016752;28;20210;-79
2023/08/15 11:48:37;;;;;;;5.57;2.50;;;25.30;99.90;;;;;;5019965;28;20675;-80
2023/08/15 11:51:05;;;;;;;6.85;2.30;;;25.60;99.90;;;;;;5030395;28;20206;-79
2023/08/15 11:53:33;;;;;;;2.60;2.05;;;25.60;99.90;;;;;;5054096;28;20195;-80
2023/08/15 11:56:00;;;;;;;3.78;2.08;;;25.70;99.90;;;;;;5010653;28;20203;-82
2023/08/15 11:58:28;;;;;;;6.03;2.40;;;25.90;99.90;;;;;;5014886;28;20223;-80
2023/08/15 12:00:57;;;;;;;2.75;1.75;;;25.90;99.90;;;;;;5029714;28;20211;-80
2023/08/15 12:03:26;;;;;;;3.60;2.35;;;25.30;99.90;;;;;;5035379;28;20183;-80
2023/08/15 12:05:57;;;;;;;4.43;2.47;;;25.40;99.90;;;;;;5037072;28;20207;-80
2023/08/15 12:08:25;;;;;;;5.05;1.92;;;25.60;99.90;;;;;;5028326;28;20575;-80
2023/08/15 12:10:54;;;;;;;3.13;2.20;;;25.90;99.90;;;;;;5037415;28;20223;-80
2023/08/15 12:13:30;;;;;;;4.85;2.45;;;25.90;99.90;;;;;;5033222;23;20219;-82
2023/08/15 12:15:57;;;;;;;3.92;2.17;;;25.60;99.90;;;;;;4986459;28;20216;-82
2023/08/15 12:18:25;;;;;;;3.58;2.22;;;25.70;99.90;;;;;;5003435;28;20204;-82
2023/08/15 12:20:52;;;;;;;5.22;2.45;;;25.70;99.90;;;;;;4994256;28;20199;-82
2023/08/15 12:23:21;;;;;;;3.58;2.30;;;25.90;99.90;;;;;;4996061;28;20228;-82
2023/08/15 12:26:03;;;;;;;4.35;2.42;;;26.10;99.90;;;;;;4993727;28;20206;-82
2023/08/15 12:28:31;;;;;;;4.75;2.47;;;25.90;99.90;;;;;;4992334;28;20285;-83
2023/08/15 12:30:58;;;;;;;3.80;2.80;;;25.90;99.90;;;;;;5003698;28;20203;-82
2023/08/15 12:33:25;;;;;;;5.93;2.55;;;25.80;99.90;;;;;;4993791;28;20223;-82
2023/08/15 12:35:53;;;;;;;4.57;2.70;;;25.60;99.90;;;;;;5008216;28;20206;-82
2023/08/15 12:38:21;;;;;;;4.47;2.40;;;25.50;99.90;;;;;;4996372;28;20220;-82
2023/08/15 12:40:49;;;;;;;5.60;2.80;;;25.60;99.90;;;;;;5008832;28;20207;-82
2023/08/15 12:43:16;;;;;;;6.32;2.67;;;25.60;99.90;;;;;;4995870;28;20689;-82
2023/08/15 12:45:44;;;;;;;4.15;2.80;;;25.80;99.90;;;;;;4990826;28;20204;-82
2023/08/15 12:48:11;;;;;;;5.22;2.58;;;25.80;99.90;;;;;;4988043;28;20561;-83
2023/08/15 12:50:39;;;;;;;4.97;2.88;;;25.90;99.90;;;;;;4991349;28;20222;-83
2023/08/15 12:53:08;;;;;;;4.38;3.03;;;25.90;99.90;;;;;;4999142;28;20219;-83
2023/08/15 12:55:37;;;;;;;4.07;2.90;;;26.10;99.90;;;;;;4991999;28;20573;-83
2023/08/15 12:58:05;;;;;;;3.33;2.70;;;26.30;99.90;;;;;;5004622;28;20212;-83